Asiatic Glory — 9V3924 — position and weather

sailwx.info

Track history (hours):
 
Tides and Currents Weather Stations Pressure Air Temp Water Temp Dewpoint Dewpoint Depression Visibility Wind Speed Wind Dir Waves Ship Positions

Asiatic Glory

Last reported at 2017-Nov-23 10:04 UTC. Time now 2017-Nov-24 02:09 UTC.
Position N 37°55' E 025°45'.

Length 149 m; draft 6.9 m.

Type: Ship (hazmat cat D). MMSI: 565594000.

Date/timePositionNaut miles runAvg speedWind from/ knotsBaromVisibWave heightAir tempDewpointWater temp
2017-Nov-23 10:04N 37°55' E 025°45'317.0
2017-Nov-23 09:53N 37°52' E 025°45'816.9
2017-Nov-23 09:26N 37°44' E 025°45'716.8
2017-Nov-23 09:00N 37°37' E 025°45'816.4
2017-Nov-23 08:30N 37°29' E 025°49'816.7
2017-Nov-23 08:00N 37°24' E 025°56'816.9
2017-Nov-23 07:30N 37°19' E 026°06'917.1
2017-Nov-23 07:00N 37°15' E 026°15'917.1
2017-Nov-23 06:30N 37°10' E 026°24'917.6
2017-Nov-23 06:00N 37°06' E 026°33'815.6
2017-Nov-23 05:31N 36°60' E 026°39'  
2017-Nov-18 07:40N 37°24' E 025°55'210.6
2017-Nov-18 07:30N 37°25' E 025°54'14 8.9
2017-Nov-18 05:54N 37°38' E 025°46'  
2017-Nov-15 17:23N 46°14' E 030°55'717.1
2017-Nov-15 17:00N 46°21' E 030°52'817.4
2017-Nov-15 16:30N 46°29' E 030°48'2 4.4
2017-Nov-15 16:00N 46°29' E 030°45'0 0.0
2017-Nov-15 15:28N 46°29' E 030°45'0 0.1
2017-Nov-15 14:40N 46°29' E 030°45'0 0.3
2017-Nov-15 14:28N 46°29' E 030°45'0 0.0
2017-Nov-15 13:57N 46°29' E 030°45'0 0.0
2017-Nov-15 13:30N 46°29' E 030°45'0 0.0
2017-Nov-15 13:00N 46°29' E 030°45'0 0.0
2017-Nov-15 12:30N 46°29' E 030°45'0 0.0
2017-Nov-15 11:56N 46°29' E 030°45'0 0.0
2017-Nov-15 11:29N 46°29' E 030°45'0 0.0
2017-Nov-15 10:59N 46°29' E 030°45'0 0.0
2017-Nov-15 10:30N 46°29' E 030°45'1 1.5
2017-Nov-15 10:00N 46°30' E 030°46'3 5.1
2017-Nov-15 09:31N 46°29' E 030°49'4 8.2
2017-Nov-15 09:00N 46°26' E 030°52'29514.8
2017-Nov-14 13:02N 44°22' E 037°13'416.2
2017-Nov-14 12:46N 44°24' E 037°18'415.7
2017-Nov-14 12:30N 44°26' E 037°23'715.2
2017-Nov-14 12:00N 44°29' E 037°32'815.2
2017-Nov-14 11:30N 44°32' E 037°42'815.6
2017-Nov-14 11:00N 44°38' E 037°49'4 7.9
2017-Nov-14 10:30N 44°42' E 037°49'1 2.3
2017-Nov-14 09:59N 44°43' E 037°49'0 0.1
2017-Nov-14 09:29N 44°43' E 037°49'0 0.1
2017-Nov-14 08:59N 44°43' E 037°49'0 0.0
2017-Nov-14 08:29N 44°43' E 037°49'0 0.1
2017-Nov-14 07:55N 44°43' E 037°49'0 0.0
2017-Nov-14 07:28N 44°43' E 037°49'0 0.1
2017-Nov-14 06:58N 44°43' E 037°49'0 0.0
2017-Nov-14 06:28N 44°43' E 037°49'0 0.1
2017-Nov-14 06:00N 44°43' E 037°49'0 0.1
2017-Nov-14 05:30N 44°43' E 037°49'0 0.0
2017-Nov-14 05:00N 44°43' E 037°49'0 0.0
2017-Nov-14 04:30N 44°43' E 037°49'0 0.0
2017-Nov-14 04:00N 44°43' E 037°49'0 0.0
2017-Nov-14 03:29N 44°43' E 037°49'0 0.1
2017-Nov-14 02:59N 44°43' E 037°49'0 0.1
2017-Nov-14 02:29N 44°43' E 037°49'0 0.0
2017-Nov-14 01:59N 44°43' E 037°49'0 0.1
2017-Nov-14 01:28N 44°43' E 037°49'0 0.1
2017-Nov-14 00:55N 44°43' E 037°49'0 0.1
2017-Nov-14 00:28N 44°43' E 037°49'0 0.1
2017-Nov-13 23:58N 44°43' E 037°49'0 0.1
2017-Nov-13 23:28N 44°43' E 037°49'0 0.0
2017-Nov-13 23:00N 44°43' E 037°49'0 0.0
2017-Nov-13 22:30N 44°43' E 037°49'0 0.0
2017-Nov-13 22:00N 44°43' E 037°49'  
Track history (hours):
 
Tides and Currents Weather Stations Pressure Air Temp Water Temp Dewpoint Dewpoint Depression Visibility Wind Speed Wind Dir Waves Ship Positions

Asiatic Glory

Last reported at 2017-Nov-23 10:04 UTC. Time now 2017-Nov-24 02:09 UTC.
Position N 37°55' E 025°45'.

Length 149 m; draft 6.9 m.

Type: Ship (hazmat cat D). MMSI: 565594000.

Date/timePositionNaut miles runAvg speedWind from/ knotsBaromVisibWave heightAir tempDewpointWater temp
2017-Nov-23 10:04N 37°55' E 025°45'317.0
2017-Nov-23 09:53N 37°52' E 025°45'816.9
2017-Nov-23 09:26N 37°44' E 025°45'716.8
2017-Nov-23 09:00N 37°37' E 025°45'816.4
2017-Nov-23 08:30N 37°29' E 025°49'816.7
2017-Nov-23 08:00N 37°24' E 025°56'816.9
2017-Nov-23 07:30N 37°19' E 026°06'917.1
2017-Nov-23 07:00N 37°15' E 026°15'917.1
2017-Nov-23 06:30N 37°10' E 026°24'917.6
2017-Nov-23 06:00N 37°06' E 026°33'815.6
2017-Nov-23 05:31N 36°60' E 026°39'  
2017-Nov-18 07:40N 37°24' E 025°55'210.6
2017-Nov-18 07:30N 37°25' E 025°54'14 8.9
2017-Nov-18 05:54N 37°38' E 025°46'  
2017-Nov-15 17:23N 46°14' E 030°55'717.1
2017-Nov-15 17:00N 46°21' E 030°52'817.4
2017-Nov-15 16:30N 46°29' E 030°48'2 4.4
2017-Nov-15 16:00N 46°29' E 030°45'0 0.0
2017-Nov-15 15:28N 46°29' E 030°45'0 0.1
2017-Nov-15 14:40N 46°29' E 030°45'0 0.3
2017-Nov-15 14:28N 46°29' E 030°45'0 0.0
2017-Nov-15 13:57N 46°29' E 030°45'0 0.0
2017-Nov-15 13:30N 46°29' E 030°45'0 0.0
2017-Nov-15 13:00N 46°29' E 030°45'0 0.0
2017-Nov-15 12:30N 46°29' E 030°45'0 0.0
2017-Nov-15 11:56N 46°29' E 030°45'0 0.0
2017-Nov-15 11:29N 46°29' E 030°45'0 0.0
2017-Nov-15 10:59N 46°29' E 030°45'0 0.0
2017-Nov-15 10:30N 46°29' E 030°45'1 1.5
2017-Nov-15 10:00N 46°30' E 030°46'3 5.1
2017-Nov-15 09:31N 46°29' E 030°49'4 8.2
2017-Nov-15 09:00N 46°26' E 030°52'29514.8
2017-Nov-14 13:02N 44°22' E 037°13'416.2
2017-Nov-14 12:46N 44°24' E 037°18'415.7
2017-Nov-14 12:30N 44°26' E 037°23'715.2
2017-Nov-14 12:00N 44°29' E 037°32'815.2
2017-Nov-14 11:30N 44°32' E 037°42'815.6
2017-Nov-14 11:00N 44°38' E 037°49'4 7.9
2017-Nov-14 10:30N 44°42' E 037°49'1 2.3
2017-Nov-14 09:59N 44°43' E 037°49'0 0.1
2017-Nov-14 09:29N 44°43' E 037°49'0 0.1
2017-Nov-14 08:59N 44°43' E 037°49'0 0.0
2017-Nov-14 08:29N 44°43' E 037°49'0 0.1
2017-Nov-14 07:55N 44°43' E 037°49'0 0.0
2017-Nov-14 07:28N 44°43' E 037°49'0 0.1
2017-Nov-14 06:58N 44°43' E 037°49'0 0.0
2017-Nov-14 06:28N 44°43' E 037°49'0 0.1
2017-Nov-14 06:00N 44°43' E 037°49'0 0.1
2017-Nov-14 05:30N 44°43' E 037°49'0 0.0
2017-Nov-14 05:00N 44°43' E 037°49'0 0.0
2017-Nov-14 04:30N 44°43' E 037°49'0 0.0
2017-Nov-14 04:00N 44°43' E 037°49'0 0.0
2017-Nov-14 03:29N 44°43' E 037°49'0 0.1
2017-Nov-14 02:59N 44°43' E 037°49'0 0.1
2017-Nov-14 02:29N 44°43' E 037°49'0 0.0
2017-Nov-14 01:59N 44°43' E 037°49'0 0.1
2017-Nov-14 01:28N 44°43' E 037°49'0 0.1
2017-Nov-14 00:55N 44°43' E 037°49'0 0.1
2017-Nov-14 00:28N 44°43' E 037°49'0 0.1
2017-Nov-13 23:58N 44°43' E 037°49'0 0.1
2017-Nov-13 23:28N 44°43' E 037°49'0 0.0
2017-Nov-13 23:00N 44°43' E 037°49'0 0.0
2017-Nov-13 22:30N 44°43' E 037°49'0 0.0
2017-Nov-13 22:00N 44°43' E 037°49'  

Dump ship's entire track history